sensor_id;sensor_type;location;lat;lon;timestamp;P1;durP1;ratioP1;P2;durP2;ratioP2
27576;SDS011;15011;53.380;10.034;2024-01-30T00:04:54;5.67;;;4.00;;
27576;SDS011;15011;53.380;10.034;2024-01-30T00:09:54;6.07;;;3.40;;
27576;SDS011;15011;53.380;10.034;2024-01-30T00:14:55;5.80;;;4.33;;
27576;SDS011;15011;53.380;10.034;2024-01-30T00:19:55;6.95;;;4.50;;
27576;SDS011;15011;53.380;10.034;2024-01-30T00:24:56;7.27;;;4.87;;
27576;SDS011;15011;53.380;10.034;2024-01-30T00:29:56;6.73;;;4.50;;
27576;SDS011;15011;53.380;10.034;2024-01-30T00:34:57;6.33;;;4.20;;
27576;SDS011;15011;53.380;10.034;2024-01-30T00:39:57;8.07;;;4.70;;
27576;SDS011;15011;53.380;10.034;2024-01-30T00:44:57;7.73;;;4.63;;
27576;SDS011;15011;53.380;10.034;2024-01-30T00:49:58;7.05;;;5.18;;
27576;SDS011;15011;53.380;10.034;2024-01-30T00:54:59;7.00;;;4.47;;
27576;SDS011;15011;53.380;10.034;2024-01-30T01:00:00;6.07;;;4.53;;
27576;SDS011;15011;53.380;10.034;2024-01-30T01:05:00;8.27;;;4.83;;
27576;SDS011;15011;53.380;10.034;2024-01-30T01:10:01;7.43;;;5.40;;
27576;SDS011;15011;53.380;10.034;2024-01-30T01:15:01;7.60;;;4.97;;
27576;SDS011;15011;53.380;10.034;2024-01-30T01:20:03;7.68;;;5.10;;
27576;SDS011;15011;53.380;10.034;2024-01-30T01:25:06;8.30;;;5.20;;
27576;SDS011;15011;53.380;10.034;2024-01-30T01:30:09;7.70;;;5.10;;
27576;SDS011;15011;53.380;10.034;2024-01-30T01:35:10;7.90;;;4.80;;
27576;SDS011;15011;53.380;10.034;2024-01-30T01:40:11;7.22;;;5.43;;
27576;SDS011;15011;53.380;10.034;2024-01-30T01:45:11;6.90;;;4.87;;
27576;SDS011;15011;53.380;10.034;2024-01-30T01:50:12;7.83;;;5.50;;
27576;SDS011;15011;53.380;10.034;2024-01-30T01:55:13;7.30;;;5.03;;
27576;SDS011;15011;53.380;10.034;2024-01-30T02:00:15;7.32;;;5.55;;
27576;SDS011;15011;53.380;10.034;2024-01-30T02:05:15;6.85;;;5.25;;
27576;SDS011;15011;53.380;10.034;2024-01-30T02:10:17;6.28;;;4.80;;
27576;SDS011;15011;53.380;10.034;2024-01-30T02:15:17;9.90;;;5.82;;
27576;SDS011;15011;53.380;10.034;2024-01-30T02:20:18;8.68;;;5.45;;
27576;SDS011;15011;53.380;10.034;2024-01-30T02:25:19;7.03;;;5.05;;
27576;SDS011;15011;53.380;10.034;2024-01-30T02:30:19;7.87;;;5.33;;
27576;SDS011;15011;53.380;10.034;2024-01-30T02:35:19;10.68;;;5.38;;
27576;SDS011;15011;53.380;10.034;2024-01-30T02:40:20;8.50;;;4.67;;
27576;SDS011;15011;53.380;10.034;2024-01-30T02:45:20;6.93;;;5.10;;
27576;SDS011;15011;53.380;10.034;2024-01-30T02:50:21;8.67;;;5.33;;
27576;SDS011;15011;53.380;10.034;2024-01-30T02:55:21;8.83;;;5.87;;
27576;SDS011;15011;53.380;10.034;2024-01-30T03:00:22;7.57;;;5.33;;
27576;SDS011;15011;53.380;10.034;2024-01-30T03:05:22;8.20;;;5.57;;
27576;SDS011;15011;53.380;10.034;2024-01-30T03:10:23;7.10;;;5.30;;
27576;SDS011;15011;53.380;10.034;2024-01-30T03:15:23;8.80;;;4.90;;
27576;SDS011;15011;53.380;10.034;2024-01-30T03:20:23;7.80;;;5.47;;
27576;SDS011;15011;53.380;10.034;2024-01-30T03:25:24;8.18;;;5.78;;
27576;SDS011;15011;53.380;10.034;2024-01-30T03:30:24;8.57;;;5.50;;
27576;SDS011;15011;53.380;10.034;2024-01-30T03:35:26;8.43;;;5.47;;
27576;SDS011;15011;53.380;10.034;2024-01-30T03:40:26;8.90;;;5.25;;
27576;SDS011;15011;53.380;10.034;2024-01-30T03:45:26;9.70;;;5.67;;
27576;SDS011;15011;53.380;10.034;2024-01-30T03:50:27;7.10;;;5.30;;
27576;SDS011;15011;53.380;10.034;2024-01-30T03:55:28;8.65;;;5.10;;
27576;SDS011;15011;53.380;10.034;2024-01-30T04:00:28;9.07;;;5.80;;
27576;SDS011;15011;53.380;10.034;2024-01-30T04:05:29;8.52;;;5.80;;
27576;SDS011;15011;53.380;10.034;2024-01-30T04:10:29;7.07;;;5.73;;
27576;SDS011;15011;53.380;10.034;2024-01-30T04:15:29;8.27;;;5.40;;
27576;SDS011;15011;53.380;10.034;2024-01-30T04:20:30;9.60;;;6.47;;
27576;SDS011;15011;53.380;10.034;2024-01-30T04:25:31;7.72;;;5.70;;
27576;SDS011;15011;53.380;10.034;2024-01-30T04:30:31;10.95;;;5.90;;
27576;SDS011;15011;53.380;10.034;2024-01-30T04:35:31;8.20;;;5.67;;
27576;SDS011;15011;53.380;10.034;2024-01-30T04:40:32;7.80;;;5.40;;
27576;SDS011;15011;53.380;10.034;2024-01-30T04:45:32;8.30;;;5.50;;
27576;SDS011;15011;53.380;10.034;2024-01-30T04:50:32;8.53;;;5.90;;
27576;SDS011;15011;53.380;10.034;2024-01-30T04:55:33;8.95;;;6.50;;
27576;SDS011;15011;53.380;10.034;2024-01-30T05:00:35;8.65;;;6.13;;
27576;SDS011;15011;53.380;10.034;2024-01-30T05:05:35;7.88;;;5.95;;
27576;SDS011;15011;53.380;10.034;2024-01-30T05:10:36;8.57;;;6.33;;
27576;SDS011;15011;53.380;10.034;2024-01-30T05:15:37;12.85;;;7.03;;
27576;SDS011;15011;53.380;10.034;2024-01-30T05:20:37;8.97;;;6.30;;
27576;SDS011;15011;53.380;10.034;2024-01-30T05:25:38;9.57;;;6.47;;
27576;SDS011;15011;53.380;10.034;2024-01-30T05:30:38;9.37;;;6.37;;
27576;SDS011;15011;53.380;10.034;2024-01-30T05:35:38;10.82;;;6.25;;
27576;SDS011;15011;53.380;10.034;2024-01-30T05:40:39;9.80;;;6.57;;
27576;SDS011;15011;53.380;10.034;2024-01-30T05:45:39;10.47;;;6.57;;
27576;SDS011;15011;53.380;10.034;2024-01-30T05:50:40;12.23;;;7.23;;
27576;SDS011;15011;53.380;10.034;2024-01-30T05:55:40;12.13;;;7.00;;
27576;SDS011;15011;53.380;10.034;2024-01-30T06:00:41;12.20;;;7.72;;
27576;SDS011;15011;53.380;10.034;2024-01-30T06:05:41;13.13;;;7.90;;
27576;SDS011;15011;53.380;10.034;2024-01-30T06:10:41;13.20;;;8.57;;
27576;SDS011;15011;53.380;10.034;2024-01-30T06:15:42;13.13;;;7.57;;
27576;SDS011;15011;53.380;10.034;2024-01-30T06:20:42;13.17;;;7.57;;
27576;SDS011;15011;53.380;10.034;2024-01-30T06:25:43;13.18;;;8.60;;
27576;SDS011;15011;53.380;10.034;2024-01-30T06:30:43;15.60;;;9.83;;
27576;SDS011;15011;53.380;10.034;2024-01-30T06:35:44;14.40;;;9.07;;
27576;SDS011;15011;53.380;10.034;2024-01-30T06:40:45;14.73;;;9.13;;
27576;SDS011;15011;53.380;10.034;2024-01-30T06:45:46;20.17;;;9.93;;
27576;SDS011;15011;53.380;10.034;2024-01-30T06:50:46;15.18;;;9.43;;
27576;SDS011;15011;53.380;10.034;2024-01-30T06:55:48;16.08;;;10.07;;
27576;SDS011;15011;53.380;10.034;2024-01-30T07:00:48;16.13;;;8.88;;
27576;SDS011;15011;53.380;10.034;2024-01-30T07:05:48;21.10;;;9.47;;
27576;SDS011;15011;53.380;10.034;2024-01-30T07:10:49;19.87;;;9.90;;
27576;SDS011;15011;53.380;10.034;2024-01-30T07:15:49;14.75;;;9.05;;
27576;SDS011;15011;53.380;10.034;2024-01-30T07:20:50;15.80;;;9.65;;
27576;SDS011;15011;53.380;10.034;2024-01-30T07:25:51;15.13;;;9.27;;
27576;SDS011;15011;53.380;10.034;2024-01-30T07:30:51;14.97;;;8.83;;
27576;SDS011;15011;53.380;10.034;2024-01-30T07:35:52;15.10;;;10.13;;
27576;SDS011;15011;53.380;10.034;2024-01-30T07:40:53;15.27;;;9.73;;
27576;SDS011;15011;53.380;10.034;2024-01-30T07:45:53;16.67;;;9.85;;
27576;SDS011;15011;53.380;10.034;2024-01-30T07:50:54;14.87;;;9.00;;
27576;SDS011;15011;53.380;10.034;2024-01-30T08:02:06;15.00;;;9.32;;
27576;SDS011;15011;53.380;10.034;2024-01-30T08:07:06;15.50;;;9.30;;
27576;SDS011;15011;53.380;10.034;2024-01-30T08:12:07;15.90;;;9.53;;
27576;SDS011;15011;53.380;10.034;2024-01-30T08:17:07;15.73;;;9.17;;
27576;SDS011;15011;53.380;10.034;2024-01-30T08:22:07;16.20;;;9.63;;
27576;SDS011;15011;53.380;10.034;2024-01-30T08:27:08;15.73;;;9.45;;
27576;SDS011;15011;53.380;10.034;2024-01-30T08:32:09;17.10;;;9.57;;
27576;SDS011;15011;53.380;10.034;2024-01-30T08:37:10;16.13;;;9.17;;
27576;SDS011;15011;53.380;10.034;2024-01-30T08:42:11;16.13;;;10.00;;
27576;SDS011;15011;53.380;10.034;2024-01-30T08:47:11;19.13;;;11.77;;
27576;SDS011;15011;53.380;10.034;2024-01-30T08:52:12;17.00;;;11.63;;
27576;SDS011;15011;53.380;10.034;2024-01-30T08:57:12;13.82;;;9.07;;
27576;SDS011;15011;53.380;10.034;2024-01-30T09:02:13;14.80;;;9.23;;
27576;SDS011;15011;53.380;10.034;2024-01-30T09:07:16;15.35;;;9.70;;
27576;SDS011;15011;53.380;10.034;2024-01-30T09:12:16;16.30;;;9.93;;
27576;SDS011;15011;53.380;10.034;2024-01-30T09:17:17;12.65;;;8.73;;
27576;SDS011;15011;53.380;10.034;2024-01-30T09:22:17;14.27;;;9.17;;
27576;SDS011;15011;53.380;10.034;2024-01-30T09:27:17;13.43;;;8.97;;
27576;SDS011;15011;53.380;10.034;2024-01-30T09:32:18;14.03;;;8.40;;
27576;SDS011;15011;53.380;10.034;2024-01-30T09:37:18;12.05;;;7.82;;
27576;SDS011;15011;53.380;10.034;2024-01-30T09:42:33;12.45;;;8.45;;
27576;SDS011;15011;53.380;10.034;2024-01-30T09:47:39;14.40;;;8.70;;
27576;SDS011;15011;53.380;10.034;2024-01-30T09:52:43;10.85;;;7.68;;
27576;SDS011;15011;53.380;10.034;2024-01-30T09:57:44;11.55;;;8.02;;
27576;SDS011;15011;53.380;10.034;2024-01-30T10:02:44;13.63;;;8.17;;
27576;SDS011;15011;53.380;10.034;2024-01-30T10:07:55;15.18;;;8.68;;
27576;SDS011;15011;53.380;10.034;2024-01-30T10:12:56;11.90;;;8.10;;
27576;SDS011;15011;53.380;10.034;2024-01-30T10:17:57;11.70;;;7.68;;
27576;SDS011;15011;53.380;10.034;2024-01-30T10:22:57;12.03;;;7.57;;
27576;SDS011;15011;53.380;10.034;2024-01-30T10:27:58;12.50;;;7.75;;
27576;SDS011;15011;53.380;10.034;2024-01-30T10:32:59;12.20;;;7.90;;
27576;SDS011;15011;53.380;10.034;2024-01-30T10:37:59;14.53;;;7.43;;
27576;SDS011;15011;53.380;10.034;2024-01-30T10:43:01;12.23;;;6.97;;
27576;SDS011;15011;53.380;10.034;2024-01-30T10:48:02;11.23;;;7.80;;
27576;SDS011;15011;53.380;10.034;2024-01-30T10:53:05;10.32;;;7.38;;
27576;SDS011;15011;53.380;10.034;2024-01-30T10:58:06;11.35;;;7.13;;
27576;SDS011;15011;53.380;10.034;2024-01-30T11:03:06;11.50;;;6.40;;
27576;SDS011;15011;53.380;10.034;2024-01-30T11:08:11;11.73;;;7.55;;
27576;SDS011;15011;53.380;10.034;2024-01-30T11:13:15;10.27;;;6.80;;
27576;SDS011;15011;53.380;10.034;2024-01-30T11:18:25;10.13;;;5.78;;
27576;SDS011;15011;53.380;10.034;2024-01-30T11:23:26;7.88;;;5.10;;
27576;SDS011;15011;53.380;10.034;2024-01-30T11:28:31;8.65;;;4.80;;
27576;SDS011;15011;53.380;10.034;2024-01-30T11:33:33;8.00;;;5.38;;
27576;SDS011;15011;53.380;10.034;2024-01-30T11:38:34;8.05;;;5.53;;
27576;SDS011;15011;53.380;10.034;2024-01-30T11:43:35;8.50;;;4.90;;
27576;SDS011;15011;53.380;10.034;2024-01-30T11:48:35;7.35;;;3.78;;
27576;SDS011;15011;53.380;10.034;2024-01-30T11:53:36;7.82;;;4.75;;
27576;SDS011;15011;53.380;10.034;2024-01-30T11:58:36;7.93;;;5.20;;
27576;SDS011;15011;53.380;10.034;2024-01-30T12:03:37;8.37;;;4.90;;
27576;SDS011;15011;53.380;10.034;2024-01-30T12:08:37;9.00;;;5.68;;
27576;SDS011;15011;53.380;10.034;2024-01-30T12:13:38;8.20;;;5.10;;
27576;SDS011;15011;53.380;10.034;2024-01-30T12:18:38;9.07;;;5.80;;
27576;SDS011;15011;53.380;10.034;2024-01-30T12:23:39;7.43;;;5.20;;
27576;SDS011;15011;53.380;10.034;2024-01-30T12:28:50;6.72;;;3.88;;
27576;SDS011;15011;53.380;10.034;2024-01-30T12:33:51;8.85;;;4.90;;
27576;SDS011;15011;53.380;10.034;2024-01-30T12:38:52;9.85;;;5.43;;
27576;SDS011;15011;53.380;10.034;2024-01-30T12:43:53;7.43;;;5.10;;
27576;SDS011;15011;53.380;10.034;2024-01-30T12:48:53;6.07;;;3.77;;
27576;SDS011;15011;53.380;10.034;2024-01-30T12:53:53;9.05;;;5.30;;
27576;SDS011;15011;53.380;10.034;2024-01-30T12:58:54;9.43;;;5.43;;
27576;SDS011;15011;53.380;10.034;2024-01-30T13:03:54;7.50;;;4.37;;
27576;SDS011;15011;53.380;10.034;2024-01-30T13:08:57;6.65;;;4.13;;
27576;SDS011;15011;53.380;10.034;2024-01-30T13:13:57;9.53;;;5.57;;
27576;SDS011;15011;53.380;10.034;2024-01-30T13:18:58;8.67;;;4.63;;
27576;SDS011;15011;53.380;10.034;2024-01-30T13:23:58;8.90;;;5.30;;
27576;SDS011;15011;53.380;10.034;2024-01-30T13:28:58;9.50;;;5.63;;
27576;SDS011;15011;53.380;10.034;2024-01-30T13:33:59;6.93;;;4.67;;
27576;SDS011;15011;53.380;10.034;2024-01-30T13:38:59;8.07;;;4.70;;
27576;SDS011;15011;53.380;10.034;2024-01-30T13:44:00;8.00;;;5.30;;
27576;SDS011;15011;53.380;10.034;2024-01-30T13:49:03;8.85;;;5.22;;
27576;SDS011;15011;53.380;10.034;2024-01-30T13:54:03;8.95;;;5.63;;
27576;SDS011;15011;53.380;10.034;2024-01-30T13:59:04;8.83;;;5.73;;
27576;SDS011;15011;53.380;10.034;2024-01-30T14:04:05;9.98;;;5.47;;
27576;SDS011;15011;53.380;10.034;2024-01-30T14:09:06;8.13;;;5.57;;
27576;SDS011;15011;53.380;10.034;2024-01-30T14:14:07;12.35;;;6.57;;
27576;SDS011;15011;53.380;10.034;2024-01-30T14:19:07;9.43;;;6.10;;
27576;SDS011;15011;53.380;10.034;2024-01-30T14:24:07;8.87;;;5.40;;
27576;SDS011;15011;53.380;10.034;2024-01-30T14:29:08;11.37;;;5.60;;
27576;SDS011;15011;53.380;10.034;2024-01-30T14:34:08;8.20;;;5.10;;
27576;SDS011;15011;53.380;10.034;2024-01-30T14:39:10;7.93;;;4.97;;
27576;SDS011;15011;53.380;10.034;2024-01-30T14:44:11;8.97;;;5.53;;
27576;SDS011;15011;53.380;10.034;2024-01-30T14:49:11;10.37;;;6.20;;
27576;SDS011;15011;53.380;10.034;2024-01-30T14:54:12;9.45;;;6.10;;
27576;SDS011;15011;53.380;10.034;2024-01-30T14:59:12;5.90;;;4.53;;
27576;SDS011;15011;53.380;10.034;2024-01-30T15:04:13;10.63;;;5.78;;
27576;SDS011;15011;53.380;10.034;2024-01-30T15:09:13;9.27;;;6.13;;
27576;SDS011;15011;53.380;10.034;2024-01-30T15:14:15;8.82;;;5.57;;
27576;SDS011;15011;53.380;10.034;2024-01-30T15:19:15;10.23;;;5.63;;
27576;SDS011;15011;53.380;10.034;2024-01-30T15:24:16;9.47;;;5.63;;
27576;SDS011;15011;53.380;10.034;2024-01-30T15:29:18;9.10;;;6.22;;
27576;SDS011;15011;53.380;10.034;2024-01-30T15:34:21;9.48;;;5.50;;
27576;SDS011;15011;53.380;10.034;2024-01-30T15:39:21;13.00;;;6.53;;
27576;SDS011;15011;53.380;10.034;2024-01-30T15:44:22;9.47;;;6.70;;
27576;SDS011;15011;53.380;10.034;2024-01-30T15:49:22;8.87;;;5.93;;
27576;SDS011;15011;53.380;10.034;2024-01-30T15:54:22;8.27;;;6.20;;
27576;SDS011;15011;53.380;10.034;2024-01-30T15:59:23;10.87;;;6.67;;
27576;SDS011;15011;53.380;10.034;2024-01-30T16:04:23;10.07;;;6.87;;
27576;SDS011;15011;53.380;10.034;2024-01-30T16:09:25;9.63;;;6.38;;
27576;SDS011;15011;53.380;10.034;2024-01-30T16:14:26;10.38;;;6.28;;
27576;SDS011;15011;53.380;10.034;2024-01-30T16:19:26;9.23;;;6.33;;
27576;SDS011;15011;53.380;10.034;2024-01-30T16:24:26;9.48;;;5.90;;
27576;SDS011;15011;53.380;10.034;2024-01-30T16:29:27;9.77;;;6.33;;
27576;SDS011;15011;53.380;10.034;2024-01-30T16:34:27;11.17;;;6.63;;
27576;SDS011;15011;53.380;10.034;2024-01-30T16:39:28;8.23;;;5.17;;
27576;SDS011;15011;53.380;10.034;2024-01-30T16:44:28;9.77;;;5.93;;
27576;SDS011;15011;53.380;10.034;2024-01-30T16:49:29;12.77;;;6.60;;
27576;SDS011;15011;53.380;10.034;2024-01-30T16:54:29;10.77;;;7.70;;
27576;SDS011;15011;53.380;10.034;2024-01-30T16:59:30;11.73;;;6.75;;
27576;SDS011;15011;53.380;10.034;2024-01-30T17:04:30;12.53;;;6.60;;
27576;SDS011;15011;53.380;10.034;2024-01-30T17:09:32;10.38;;;6.20;;
27576;SDS011;15011;53.380;10.034;2024-01-30T17:14:33;9.65;;;5.28;;
27576;SDS011;15011;53.380;10.034;2024-01-30T17:19:38;9.90;;;6.28;;
27576;SDS011;15011;53.380;10.034;2024-01-30T17:24:38;11.00;;;6.27;;
27576;SDS011;15011;53.380;10.034;2024-01-30T17:29:39;10.67;;;5.30;;
27576;SDS011;15011;53.380;10.034;2024-01-30T17:34:39;10.43;;;6.37;;
27576;SDS011;15011;53.380;10.034;2024-01-30T17:39:40;11.50;;;6.10;;
27576;SDS011;15011;53.380;10.034;2024-01-30T17:44:40;6.47;;;4.63;;
27576;SDS011;15011;53.380;10.034;2024-01-30T17:49:42;8.68;;;5.15;;
27576;SDS011;15011;53.380;10.034;2024-01-30T17:54:43;9.50;;;6.05;;
27576;SDS011;15011;53.380;10.034;2024-01-30T17:59:45;8.75;;;6.00;;
27576;SDS011;15011;53.380;10.034;2024-01-30T18:04:45;7.60;;;4.93;;
27576;SDS011;15011;53.380;10.034;2024-01-30T18:09:46;9.47;;;5.53;;
27576;SDS011;15011;53.380;10.034;2024-01-30T18:14:46;9.40;;;6.37;;
27576;SDS011;15011;53.380;10.034;2024-01-30T18:19:48;12.25;;;6.40;;
27576;SDS011;15011;53.380;10.034;2024-01-30T18:24:48;7.67;;;5.30;;
27576;SDS011;15011;53.380;10.034;2024-01-30T18:29:49;13.07;;;6.33;;
27576;SDS011;15011;53.380;10.034;2024-01-30T18:34:49;9.65;;;6.65;;
27576;SDS011;15011;53.380;10.034;2024-01-30T18:39:49;8.53;;;5.83;;
27576;SDS011;15011;53.380;10.034;2024-01-30T18:44:50;9.80;;;6.37;;
27576;SDS011;15011;53.380;10.034;2024-01-30T18:49:50;8.80;;;6.30;;
27576;SDS011;15011;53.380;10.034;2024-01-30T18:54:51;12.05;;;6.75;;
27576;SDS011;15011;53.380;10.034;2024-01-30T18:59:52;11.02;;;6.80;;
27576;SDS011;15011;53.380;10.034;2024-01-30T19:04:52;8.02;;;5.43;;
27576;SDS011;15011;53.380;10.034;2024-01-30T19:09:53;8.48;;;5.90;;
27576;SDS011;15011;53.380;10.034;2024-01-30T19:14:53;6.13;;;4.13;;
27576;SDS011;15011;53.380;10.034;2024-01-30T19:19:54;4.50;;;2.65;;
27576;SDS011;15011;53.380;10.034;2024-01-30T19:24:54;2.97;;;2.30;;
27576;SDS011;15011;53.380;10.034;2024-01-30T19:29:56;5.82;;;2.63;;
27576;SDS011;15011;53.380;10.034;2024-01-30T19:34:57;2.58;;;2.20;;
27576;SDS011;15011;53.380;10.034;2024-01-30T19:39:58;4.80;;;2.23;;
27576;SDS011;15011;53.380;10.034;2024-01-30T19:44:58;3.78;;;2.47;;
27576;SDS011;15011;53.380;10.034;2024-01-30T19:49:59;3.50;;;1.92;;
27576;SDS011;15011;53.380;10.034;2024-01-30T19:54:59;3.80;;;2.03;;
27576;SDS011;15011;53.380;10.034;2024-01-30T20:00:00;7.60;;;2.93;;
27576;SDS011;15011;53.380;10.034;2024-01-30T20:05:01;3.20;;;2.20;;
27576;SDS011;15011;53.380;10.034;2024-01-30T20:10:01;3.97;;;2.50;;
27576;SDS011;15011;53.380;10.034;2024-01-30T20:15:02;4.27;;;2.80;;
27576;SDS011;15011;53.380;10.034;2024-01-30T20:20:03;4.50;;;2.75;;
27576;SDS011;15011;53.380;10.034;2024-01-30T20:25:07;4.85;;;2.80;;
27576;SDS011;15011;53.380;10.034;2024-01-30T20:30:08;4.70;;;2.92;;
27576;SDS011;15011;53.380;10.034;2024-01-30T20:35:13;4.65;;;3.03;;
27576;SDS011;15011;53.380;10.034;2024-01-30T20:40:13;5.50;;;3.25;;
27576;SDS011;15011;53.380;10.034;2024-01-30T20:45:15;5.47;;;3.17;;
27576;SDS011;15011;53.380;10.034;2024-01-30T20:50:15;6.57;;;3.50;;
27576;SDS011;15011;53.380;10.034;2024-01-30T20:55:16;6.35;;;4.40;;
27576;SDS011;15011;53.380;10.034;2024-01-30T21:00:16;5.85;;;3.50;;
27576;SDS011;15011;53.380;10.034;2024-01-30T21:05:17;5.20;;;3.00;;
27576;SDS011;15011;53.380;10.034;2024-01-30T21:10:22;3.67;;;2.83;;
27576;SDS011;15011;53.380;10.034;2024-01-30T21:15:22;4.57;;;2.57;;
27576;SDS011;15011;53.380;10.034;2024-01-30T21:20:23;5.17;;;3.07;;
27576;SDS011;15011;53.380;10.034;2024-01-30T21:25:24;6.00;;;3.63;;
27576;SDS011;15011;53.380;10.034;2024-01-30T21:30:24;3.73;;;2.90;;
27576;SDS011;15011;53.380;10.034;2024-01-30T21:35:25;4.65;;;3.00;;
27576;SDS011;15011;53.380;10.034;2024-01-30T21:40:26;6.60;;;3.80;;
27576;SDS011;15011;53.380;10.034;2024-01-30T21:45:27;5.57;;;3.70;;
27576;SDS011;15011;53.380;10.034;2024-01-30T21:50:28;5.97;;;4.28;;
27576;SDS011;15011;53.380;10.034;2024-01-30T21:55:29;3.53;;;2.60;;
27576;SDS011;15011;53.380;10.034;2024-01-30T22:00:29;2.65;;;1.60;;
27576;SDS011;15011;53.380;10.034;2024-01-30T22:05:29;2.87;;;1.70;;
27576;SDS011;15011;53.380;10.034;2024-01-30T22:10:31;1.20;;;1.10;;
27576;SDS011;15011;53.380;10.034;2024-01-30T22:15:31;2.50;;;1.33;;
27576;SDS011;15011;53.380;10.034;2024-01-30T22:20:36;2.45;;;1.20;;
27576;SDS011;15011;53.380;10.034;2024-01-30T22:25:37;1.63;;;1.10;;
27576;SDS011;15011;53.380;10.034;2024-01-30T22:30:37;3.35;;;1.00;;
27576;SDS011;15011;53.380;10.034;2024-01-30T22:35:38;1.70;;;1.20;;
27576;SDS011;15011;53.380;10.034;2024-01-30T22:40:38;1.20;;;0.93;;
27576;SDS011;15011;53.380;10.034;2024-01-30T22:45:39;2.03;;;1.40;;
27576;SDS011;15011;53.380;10.034;2024-01-30T22:50:39;2.47;;;1.17;;
27576;SDS011;15011;53.380;10.034;2024-01-30T22:55:39;2.30;;;1.20;;
27576;SDS011;15011;53.380;10.034;2024-01-30T23:00:40;2.60;;;1.10;;
27576;SDS011;15011;53.380;10.034;2024-01-30T23:05:41;1.35;;;1.10;;
27576;SDS011;15011;53.380;10.034;2024-01-30T23:10:42;0.82;;;0.70;;
27576;SDS011;15011;53.380;10.034;2024-01-30T23:15:42;1.37;;;0.70;;
27576;SDS011;15011;53.380;10.034;2024-01-30T23:20:42;1.27;;;0.60;;
27576;SDS011;15011;53.380;10.034;2024-01-30T23:25:43;1.20;;;0.70;;
27576;SDS011;15011;53.380;10.034;2024-01-30T23:30:43;2.03;;;0.80;;
27576;SDS011;15011;53.380;10.034;2024-01-30T23:35:44;1.23;;;1.00;;
27576;SDS011;15011;53.380;10.034;2024-01-30T23:40:44;2.27;;;0.87;;
27576;SDS011;15011;53.380;10.034;2024-01-30T23:45:45;2.85;;;0.80;;
27576;SDS011;15011;53.380;10.034;2024-01-30T23:50:45;2.00;;;0.60;;
27576;SDS011;15011;53.380;10.034;2024-01-30T23:55:46;1.40;;;0.47;;
